Caldwell, ID

12:17 AM MST on December 20, 2014 (GMT -0700)
Caldwell Industrial | Change Station
CLOSE
Current Station
Airport
Location: Caldwell,
Elevation: 2428 ft
Nearby Weather Stations

Elev 2428 ft 43.64 °N, 116.64 °W | Updated 22 minutes ago

Clear
Clear
36 °F
Feels Like 29 °F
N
8
Wind Variable Wind from ENE

Today
High -- | Low -- °F
--% Chance of Precip.
Yesterday
High -- | Low -- °F
Precip. -- in
8:16 AM 5:12 PM
Waning Crescent, 4% visible
Pressure 30.09 in
Visibility 10.0 miles
Clouds Clear
Windchill 29 °F
Dew Point 28 °F
Humidity 75%
Rainfall 0.30 in
Snow Depth Not available.
UV 0 out of 12
Pollen .10 out of 12
Air Quality Not available.
Flu Activity Not available.
METAR KEUL 200655Z AUTO 07007KT 10SM CLR 02/M02 A3009 RMK AO1

More Conditions Fewer Conditions

Pressure 30.09 in
Visibility 10.0 miles
Clouds Clear
Windchill 29 °F
Dew Point 28 °F
Humidity 75%
Rainfall 0.30 in
Snow Depth Not available.
UV 0 out of 12
Pollen .10 out of 12
Air Quality Not available.
Flu Activity Not available.
METAR KEUL 200655Z AUTO 07007KT 10SM CLR 02/M02 A3009 RMK AO1

More Conditions Fewer Conditions

10-Day Weather Forecast

Almanac

Astronomy

Dec. 20, 2014 Rise Set
Actual Time
Civil Twilight
Nautical Twilight
Astronomical Twilight
Moon
Length of Visible Light
Length of Day
Tomorrow will be .
, % of the Moon is Illuminated

Today's Extremes

State Highs State Lows

Community

WunderPhotos

Upload Photos

1,779,146 photos uploaded!

WunderBlogs® & News

Nearby

Air Quality

  Air Quality AQ Index Pollutant
Not available.

Snow Depth

Station Depth Elevation

Earthquake Activity

City Distance Mag. Time & Date
Minimum magnitude displayed is 2.5.

Coastal Water Temperatures

Place Temperature

Nearby Weather Stations